Time;durP1;ratioP1;P1;durP2;ratioP2;P2;SDS_P1;SDS_P2;PMS_P1;PMS_P2;Temp;Humidity;BMP_temperature;BMP_pressure;BME280_temperature;BME280_humidity;BME280_pressure;Samples;Min_cycle;Max_cycle;Signal;HPM_P1;HPM_P2
2022/03/20 00:00:41;;;;;;;5.68;2.72;;;;;;;;;;5009476;28;20050;-70
2022/03/20 00:03:09;;;;;;;7.65;3.15;;;;;;;;;;5009265;28;20037;-70
2022/03/20 00:05:38;;;;;;;12.60;4.22;;;;;;;;;;5006502;28;20042;-70
2022/03/20 00:08:08;;;;;;;7.60;3.55;;;;;;;;;;5010221;28;20046;-70
2022/03/20 00:10:34;;;;;;;11.20;4.80;;;;;;;;;;5010178;28;20024;-70
2022/03/20 00:13:00;;;;;;;8.88;3.83;;;;;;;;;;4989489;28;20042;-70
2022/03/20 00:15:27;;;;;;;5.18;3.25;;;;;;;;;;5009116;28;20176;-70
2022/03/20 00:17:53;;;;;;;8.48;4.82;;;;;;;;;;5010058;28;20041;-70
2022/03/20 00:20:19;;;;;;;13.57;5.57;;;;;;;;;;5000938;28;20092;-69
2022/03/20 00:22:44;;;;;;;11.10;4.80;;;;;;;;;;5016334;28;20112;-70
2022/03/20 00:25:10;;;;;;;10.38;4.68;;;;;;;;;;5030596;28;20036;-70
2022/03/20 00:27:35;;;;;;;8.13;4.38;;;;;;;;;;5009051;28;20585;-70
2022/03/20 00:30:01;;;;;;;11.90;4.93;;;;;;;;;;5009694;28;20061;-70
2022/03/20 00:32:26;;;;;;;11.60;5.25;;;;;;;;;;5008788;28;20030;-70
2022/03/20 00:34:56;;;;;;;12.35;5.63;;;;;;;;;;5009904;28;20088;-70
2022/03/20 00:37:22;;;;;;;10.93;5.40;;;;;;;;;;5010441;28;20025;-70
2022/03/20 00:39:47;;;;;;;8.82;4.97;;;;;;;;;;4996495;28;20034;-70
2022/03/20 00:42:12;;;;;;;9.63;4.55;;;;;;;;;;5002621;28;20570;-70
2022/03/20 00:44:38;;;;;;;14.07;6.47;;;;;;;;;;5009772;28;20030;-70
2022/03/20 00:47:03;;;;;;;10.25;4.53;;;;;;;;;;5009071;28;20042;-70
2022/03/20 00:49:29;;;;;;;14.27;6.30;;;;;;;;;;5005544;28;20030;-70
2022/03/20 00:51:54;;;;;;;14.05;5.75;;;;;;;;;;4998807;28;20034;-70
2022/03/20 00:54:19;;;;;;;13.77;5.63;;;;;;;;;;5005982;28;20034;-69
2022/03/20 00:56:46;;;;;;;13.85;5.97;;;;;;;;;;5007032;28;20041;-70
2022/03/20 00:59:11;;;;;;;12.45;6.30;;;;;;;;;;4993350;28;20118;-70
2022/03/20 01:01:37;;;;;;;13.00;5.53;;;;;;;;;;4999183;28;20136;-70
2022/03/20 01:04:02;;;;;;;14.55;5.93;;;;;;;;;;5009057;28;20153;-70
2022/03/20 01:06:27;;;;;;;13.15;5.88;;;;;;;;;;5009082;28;20072;-70
2022/03/20 01:08:53;;;;;;;12.00;5.43;;;;;;;;;;5008407;28;20042;-69
2022/03/20 01:11:19;;;;;;;15.13;5.75;;;;;;;;;;5006606;28;20038;-70
2022/03/20 01:13:44;;;;;;;14.85;6.07;;;;;;;;;;5003743;28;20064;-70
2022/03/20 01:16:10;;;;;;;12.40;5.57;;;;;;;;;;4995761;28;20034;-70
2022/03/20 01:18:35;;;;;;;12.82;5.90;;;;;;;;;;5006386;28;20108;-70
2022/03/20 01:21:01;;;;;;;11.45;5.82;;;;;;;;;;5009090;28;20042;-70
2022/03/20 01:23:27;;;;;;;11.05;4.90;;;;;;;;;;5010926;28;20084;-70
2022/03/20 01:25:52;;;;;;;13.07;5.43;;;;;;;;;;5016186;28;20033;-70
2022/03/20 01:28:19;;;;;;;10.85;4.90;;;;;;;;;;5003557;28;20502;-70
2022/03/20 01:30:45;;;;;;;11.00;4.70;;;;;;;;;;5008661;28;20112;-70
2022/03/20 01:33:11;;;;;;;14.43;5.05;;;;;;;;;;5007988;28;20128;-70
2022/03/20 01:35:36;;;;;;;11.98;4.60;;;;;;;;;;5008812;28;20125;-70
2022/03/20 01:38:03;;;;;;;10.90;4.95;;;;;;;;;;5005116;28;20065;-69
2022/03/20 01:40:28;;;;;;;10.50;5.13;;;;;;;;;;5009352;28;20033;-70
2022/03/20 01:42:54;;;;;;;12.77;4.97;;;;;;;;;;5008136;28;20064;-70
2022/03/20 01:45:23;;;;;;;13.10;4.68;;;;;;;;;;5000129;28;20050;-70
2022/03/20 01:47:49;;;;;;;10.68;4.68;;;;;;;;;;5009725;28;20040;-70
2022/03/20 01:50:20;;;;;;;13.75;5.32;;;;;;;;;;5009310;28;20053;-70
2022/03/20 01:52:47;;;;;;;8.63;3.95;;;;;;;;;;5004487;28;20634;-70
2022/03/20 01:55:15;;;;;;;8.02;4.07;;;;;;;;;;5008280;28;20053;-70
2022/03/20 01:57:41;;;;;;;6.50;3.60;;;;;;;;;;4998114;28;20721;-70
2022/03/20 02:00:08;;;;;;;8.05;3.97;;;;;;;;;;5007893;28;20080;-70
2022/03/20 02:02:34;;;;;;;8.80;4.00;;;;;;;;;;5020952;28;20081;-69
2022/03/20 02:04:59;;;;;;;7.50;3.03;;;;;;;;;;5006956;28;20065;-70
2022/03/20 02:07:25;;;;;;;8.55;3.65;;;;;;;;;;5001399;28;20038;-70
2022/03/20 02:09:51;;;;;;;9.85;4.07;;;;;;;;;;5009089;28;20042;-70
2022/03/20 02:12:17;;;;;;;8.75;3.55;;;;;;;;;;5009238;28;20046;-70
2022/03/20 02:14:42;;;;;;;9.07;3.92;;;;;;;;;;5010348;28;20566;-70
2022/03/20 02:17:10;;;;;;;8.82;3.85;;;;;;;;;;5009572;28;20128;-70
2022/03/20 02:19:36;;;;;;;8.40;3.42;;;;;;;;;;5006184;28;20088;-70
2022/03/20 02:22:03;;;;;;;9.23;4.07;;;;;;;;;;5011771;28;20569;-70
2022/03/20 02:24:49;;;;;;;12.82;4.63;;;;;;;;;;5014702;28;20093;-70
2022/03/20 02:27:19;;;;;;;10.57;3.88;;;;;;;;;;5009364;28;20042;-71
2022/03/20 02:29:59;;;;;;;8.88;4.07;;;;;;;;;;5005090;28;20046;-70
2022/03/20 02:32:27;;;;;;;6.97;3.67;;;;;;;;;;5009368;28;20037;-70
2022/03/20 02:34:54;;;;;;;8.82;4.05;;;;;;;;;;5004959;28;20029;-70
2022/03/20 02:37:22;;;;;;;10.95;4.85;;;;;;;;;;5005405;28;20132;-70
2022/03/20 02:39:48;;;;;;;10.20;4.78;;;;;;;;;;5005600;28;20048;-70
2022/03/20 02:42:15;;;;;;;10.90;5.35;;;;;;;;;;5007293;28;20050;-70
2022/03/20 02:45:04;;;;;;;13.27;5.38;;;;;;;;;;5008558;28;20053;-70
2022/03/20 02:47:35;;;;;;;10.60;4.93;;;;;;;;;;5009084;28;20071;-70
2022/03/20 02:50:03;;;;;;;14.27;5.22;;;;;;;;;;5007602;28;20484;-70
2022/03/20 02:52:49;;;;;;;12.02;5.40;;;;;;;;;;4990023;28;20026;-70
2022/03/20 02:55:24;;;;;;;13.27;5.60;;;;;;;;;;5003043;28;20133;-70
2022/03/20 02:57:51;;;;;;;12.70;5.60;;;;;;;;;;5008813;28;20045;-70
2022/03/20 03:00:21;;;;;;;13.77;5.82;;;;;;;;;;5007899;28;20141;-70
2022/03/20 03:02:46;;;;;;;15.20;6.00;;;;;;;;;;5011302;28;20045;-70
2022/03/20 03:05:17;;;;;;;11.77;5.97;;;;;;;;;;5007227;28;20038;-70
2022/03/20 03:13:16;;;;;;;14.90;7.18;;;;;;;;;;5008646;28;20048;-70
2022/03/20 03:15:42;;;;;;;15.43;7.03;;;;;;;;;;4993144;28;20046;-70
2022/03/20 03:18:08;;;;;;;16.70;6.22;;;;;;;;;;4980843;28;20047;-70
2022/03/20 03:20:33;;;;;;;16.02;6.15;;;;;;;;;;4988354;28;20047;-70
2022/03/20 03:22:59;;;;;;;15.63;7.03;;;;;;;;;;5001552;28;20555;-70
2022/03/20 03:25:25;;;;;;;15.68;6.43;;;;;;;;;;5013643;28;20064;-70
2022/03/20 03:27:52;;;;;;;15.32;6.63;;;;;;;;;;5008322;28;20036;-70
2022/03/20 03:30:17;;;;;;;14.68;6.90;;;;;;;;;;5008172;28;20486;-70
2022/03/20 03:32:43;;;;;;;16.48;7.10;;;;;;;;;;5008808;28;20046;-70
2022/03/20 03:37:54;;;;;;;19.10;7.72;;;;;;;;;;5008455;28;20044;-70
2022/03/20 03:40:20;;;;;;;17.25;7.45;;;;;;;;;;5006985;28;20034;-70
2022/03/20 03:42:46;;;;;;;19.45;7.15;;;;;;;;;;4999848;28;20042;-70
2022/03/20 03:45:12;;;;;;;16.63;7.40;;;;;;;;;;4994205;28;20092;-70
2022/03/20 03:47:38;;;;;;;19.67;8.07;;;;;;;;;;5008544;28;20570;-70
2022/03/20 03:50:04;;;;;;;17.33;6.90;;;;;;;;;;5006765;28;20100;-70
2022/03/20 03:52:29;;;;;;;16.83;7.53;;;;;;;;;;5008887;28;20575;-70
2022/03/20 03:54:55;;;;;;;19.15;7.60;;;;;;;;;;5008373;28;20060;-70
2022/03/20 03:57:20;;;;;;;16.60;7.18;;;;;;;;;;4996827;28;20042;-70
2022/03/20 03:59:47;;;;;;;16.60;8.45;;;;;;;;;;5010774;28;20038;-70
2022/03/20 04:02:13;;;;;;;17.77;6.60;;;;;;;;;;5008481;28;20046;-70
2022/03/20 04:04:39;;;;;;;19.13;7.32;;;;;;;;;;5014106;28;20121;-70
2022/03/20 04:07:04;;;;;;;18.60;6.95;;;;;;;;;;5007878;28;20419;-70
2022/03/20 04:09:30;;;;;;;15.40;6.68;;;;;;;;;;5011748;28;20506;-70
2022/03/20 04:11:57;;;;;;;18.90;7.50;;;;;;;;;;5008618;28;20482;-70
2022/03/20 04:14:22;;;;;;;17.13;7.13;;;;;;;;;;5012506;28;20565;-69
2022/03/20 04:16:48;;;;;;;19.40;8.35;;;;;;;;;;4998152;28;20034;-70
2022/03/20 04:19:14;;;;;;;16.63;7.93;;;;;;;;;;5012379;28;20037;-70
2022/03/20 04:21:39;;;;;;;17.17;7.63;;;;;;;;;;5010741;28;20554;-70
2022/03/20 04:24:05;;;;;;;19.00;8.05;;;;;;;;;;5029370;28;20041;-70
2022/03/20 04:26:33;;;;;;;18.63;7.22;;;;;;;;;;5020824;28;20037;-70
2022/03/20 04:28:58;;;;;;;21.63;8.45;;;;;;;;;;5011175;28;20091;-70
2022/03/20 04:31:23;;;;;;;18.90;8.20;;;;;;;;;;5011376;28;20553;-70
2022/03/20 04:33:51;;;;;;;18.13;8.00;;;;;;;;;;5008173;28;20037;-70
2022/03/20 04:36:17;;;;;;;18.40;8.43;;;;;;;;;;5008977;28;20675;-69
2022/03/20 04:38:45;;;;;;;19.45;7.53;;;;;;;;;;5007767;28;20044;-70
2022/03/20 04:41:11;;;;;;;18.45;7.88;;;;;;;;;;5010734;28;20730;-70
2022/03/20 04:43:36;;;;;;;17.98;8.27;;;;;;;;;;5011616;28;20022;-70
2022/03/20 04:46:01;;;;;;;19.48;9.43;;;;;;;;;;5010903;28;20038;-70
2022/03/20 04:59:23;;;;;;;20.15;7.65;;;;;;;;;;5010628;28;20037;-69
2022/03/20 05:01:49;;;;;;;19.20;7.68;;;;;;;;;;5012305;28;20089;-70
2022/03/20 05:04:15;;;;;;;18.67;7.72;;;;;;;;;;5010839;28;20068;-70
2022/03/20 05:06:43;;;;;;;18.85;7.97;;;;;;;;;;5009204;28;20049;-70
2022/03/20 05:14:37;;;;;;;21.15;7.90;;;;;;;;;;5010837;28;20045;-70
2022/03/20 05:17:06;;;;;;;17.98;7.18;;;;;;;;;;5010357;28;20030;-70
2022/03/20 05:19:35;;;;;;;22.35;8.82;;;;;;;;;;5006184;28;20073;-70
2022/03/20 05:22:04;;;;;;;21.90;8.73;;;;;;;;;;4996406;28;20092;-70
2022/03/20 05:24:31;;;;;;;18.20;8.63;;;;;;;;;;4990879;28;20105;-70
2022/03/20 05:26:56;;;;;;;18.20;8.80;;;;;;;;;;4993653;28;20144;-70
2022/03/20 05:29:22;;;;;;;17.30;7.63;;;;;;;;;;5007071;28;20175;-70
2022/03/20 05:31:48;;;;;;;18.00;8.10;;;;;;;;;;5004614;28;20699;-69
2022/03/20 05:34:15;;;;;;;25.42;9.27;;;;;;;;;;5009111;28;20030;-70
2022/03/20 05:36:40;;;;;;;25.20;10.35;;;;;;;;;;4998921;28;20139;-70
2022/03/20 05:39:06;;;;;;;24.05;10.70;;;;;;;;;;5005923;28;20125;-70
2022/03/20 05:41:46;;;;;;;17.92;8.25;;;;;;;;;;5009428;28;20057;-70
2022/03/20 05:44:11;;;;;;;18.45;8.57;;;;;;;;;;5007712;28;20466;-70
2022/03/20 05:46:40;;;;;;;18.33;8.43;;;;;;;;;;5010744;28;20487;-70
2022/03/20 05:49:06;;;;;;;22.33;9.32;;;;;;;;;;5009741;28;20038;-70
2022/03/20 05:51:37;;;;;;;20.77;8.77;;;;;;;;;;5010143;28;20030;-70
2022/03/20 05:54:02;;;;;;;20.73;9.55;;;;;;;;;;5006350;28;20030;-70
2022/03/20 05:59:11;;;;;;;;;;;;;;;;;;5009495;28;20087;-70
2022/03/20 06:01:36;;;;;;;23.23;9.38;;;;;;;;;;5007293;28;19917;-70
2022/03/20 06:04:03;;;;;;;23.17;9.75;;;;;;;;;;5008755;28;20046;-70
2022/03/20 06:06:30;;;;;;;26.90;11.35;;;;;;;;;;5008123;28;20065;-70
2022/03/20 06:08:55;;;;;;;19.10;8.18;;;;;;;;;;5009554;28;20038;-70
2022/03/20 06:11:21;;;;;;;28.33;11.48;;;;;;;;;;5011574;28;20064;-70
2022/03/20 06:13:48;;;;;;;22.40;10.88;;;;;;;;;;5019137;28;20079;-70
2022/03/20 06:16:14;;;;;;;27.85;11.10;;;;;;;;;;4994770;28;20056;-70
2022/03/20 06:18:42;;;;;;;25.77;10.77;;;;;;;;;;4997210;28;20183;-70
2022/03/20 06:21:11;;;;;;;22.00;10.25;;;;;;;;;;5008497;28;20123;-70
2022/03/20 06:23:37;;;;;;;28.35;11.27;;;;;;;;;;5007414;28;20030;-70
2022/03/20 06:26:03;;;;;;;29.70;11.75;;;;;;;;;;5009127;28;20034;-70
2022/03/20 06:28:29;;;;;;;30.88;12.10;;;;;;;;;;5006011;28;20029;-70
2022/03/20 06:30:54;;;;;;;34.15;14.02;;;;;;;;;;5008736;28;20137;-70
2022/03/20 06:33:20;;;;;;;31.38;12.95;;;;;;;;;;5006606;28;20104;-69
2022/03/20 06:35:46;;;;;;;24.85;9.98;;;;;;;;;;5004747;28;20044;-70
2022/03/20 06:38:12;;;;;;;33.78;14.55;;;;;;;;;;5002950;28;20463;-70
2022/03/20 06:40:37;;;;;;;30.73;12.25;;;;;;;;;;5007963;28;20538;-70
2022/03/20 06:43:03;;;;;;;31.02;13.63;;;;;;;;;;5009461;28;20037;-70
2022/03/20 06:45:28;;;;;;;32.78;14.20;;;;;;;;;;5008490;28;20161;-70
2022/03/20 06:47:54;;;;;;;40.55;16.77;;;;;;;;;;5009334;28;20144;-70
2022/03/20 06:50:20;;;;;;;37.42;14.85;;;;;;;;;;5006858;28;20033;-70
2022/03/20 06:52:45;;;;;;;33.78;15.45;;;;;;;;;;4993033;28;20408;-70
2022/03/20 06:55:13;;;;;;;32.00;13.75;;;;;;;;;;5008309;28;20140;-70
2022/03/20 06:57:42;;;;;;;34.28;15.40;;;;;;;;;;5008090;28;20038;-70
2022/03/20 07:00:09;;;;;;;39.85;15.55;;;;;;;;;;5007262;28;20107;-70
2022/03/20 07:02:37;;;;;;;36.08;15.30;;;;;;;;;;5020029;28;20124;-70
2022/03/20 07:05:03;;;;;;;36.28;14.35;;;;;;;;;;5005311;28;20076;-70
2022/03/20 07:07:28;;;;;;;42.40;17.60;;;;;;;;;;5007550;28;20482;-70
2022/03/20 07:09:54;;;;;;;41.08;18.02;;;;;;;;;;4999670;28;20049;-70
2022/03/20 07:12:19;;;;;;;45.22;18.40;;;;;;;;;;5014791;28;20030;-70
2022/03/20 07:14:45;;;;;;;42.90;18.23;;;;;;;;;;5008168;28;20345;-70
2022/03/20 07:17:16;;;;;;;42.90;19.00;;;;;;;;;;5008916;28;20058;-70
2022/03/20 07:19:43;;;;;;;34.55;15.07;;;;;;;;;;5007843;28;20062;-70
2022/03/20 07:22:10;;;;;;;38.15;18.05;;;;;;;;;;5007904;28;20124;-70
2022/03/20 07:24:36;;;;;;;45.38;18.30;;;;;;;;;;5003351;28;20133;-70
2022/03/20 07:29:45;;;;;;;40.22;17.88;;;;;;;;;;5004250;28;20073;-70
2022/03/20 07:32:11;;;;;;;47.97;19.10;;;;;;;;;;5000562;28;20058;-70
2022/03/20 07:34:39;;;;;;;41.55;17.77;;;;;;;;;;5009261;28;20045;-70
2022/03/20 07:37:05;;;;;;;35.85;16.50;;;;;;;;;;5007081;28;20045;-70
2022/03/20 07:39:32;;;;;;;41.25;18.75;;;;;;;;;;5007601;28;20156;-70
2022/03/20 07:41:58;;;;;;;44.22;18.27;;;;;;;;;;5006580;28;20146;-70
2022/03/20 07:44:25;;;;;;;47.55;18.92;;;;;;;;;;5010336;28;20045;-70
2022/03/20 07:46:54;;;;;;;44.38;18.23;;;;;;;;;;5005872;28;20037;-70
2022/03/20 07:49:20;;;;;;;31.63;12.52;;;;;;;;;;4991746;28;20034;-70
2022/03/20 07:51:46;;;;;;;36.35;16.30;;;;;;;;;;4996574;28;20034;-70
2022/03/20 07:54:12;;;;;;;43.78;21.25;;;;;;;;;;5003982;28;20042;-70
2022/03/20 07:56:38;;;;;;;39.35;17.33;;;;;;;;;;5009148;28;20715;-70
2022/03/20 07:59:06;;;;;;;37.38;14.38;;;;;;;;;;5010010;28;20050;-70
2022/03/20 08:01:38;;;;;;;34.40;16.80;;;;;;;;;;5009139;28;20052;-70
2022/03/20 08:04:04;;;;;;;35.80;17.15;;;;;;;;;;4999057;28;20052;-70
2022/03/20 08:06:30;;;;;;;35.03;15.20;;;;;;;;;;5007396;28;20038;-70
2022/03/20 08:08:59;;;;;;;31.02;14.70;;;;;;;;;;5006868;28;20080;-70
2022/03/20 08:11:27;;;;;;;32.05;15.10;;;;;;;;;;5012832;28;20079;-70
2022/03/20 08:13:53;;;;;;;36.85;16.55;;;;;;;;;;5011405;28;20050;-73
2022/03/20 08:16:20;;;;;;;41.28;17.75;;;;;;;;;;5009173;28;20026;-70
2022/03/20 08:18:46;;;;;;;41.58;17.00;;;;;;;;;;4999681;28;20419;-70
2022/03/20 08:21:12;;;;;;;38.30;15.80;;;;;;;;;;5005800;28;20044;-69
2022/03/20 08:23:39;;;;;;;36.22;16.40;;;;;;;;;;4999626;28;20073;-69
2022/03/20 08:26:08;;;;;;;37.55;16.95;;;;;;;;;;4993017;28;20041;-69
2022/03/20 08:28:35;;;;;;;38.60;17.73;;;;;;;;;;5004535;28;20044;-69
2022/03/20 08:31:00;;;;;;;42.42;17.95;;;;;;;;;;5010223;28;20507;-69
2022/03/20 08:33:27;;;;;;;40.38;17.77;;;;;;;;;;5008148;28;20093;-69
2022/03/20 08:35:52;;;;;;;39.40;17.80;;;;;;;;;;5010563;28;20096;-69
2022/03/20 08:38:17;;;;;;;37.50;16.20;;;;;;;;;;5010585;28;20029;-69
2022/03/20 08:40:43;;;;;;;41.88;19.58;;;;;;;;;;5005978;28;20667;-69
2022/03/20 08:43:13;;;;;;;44.75;20.33;;;;;;;;;;5004726;28;20149;-69
2022/03/20 08:45:41;;;;;;;47.13;21.42;;;;;;;;;;5016139;28;20537;-69
2022/03/20 08:48:06;;;;;;;40.05;17.50;;;;;;;;;;5009893;28;20070;-69
2022/03/20 08:50:32;;;;;;;43.10;19.55;;;;;;;;;;4992896;28;20062;-69
2022/03/20 08:52:57;;;;;;;43.85;19.77;;;;;;;;;;4987719;28;20423;-69
2022/03/20 08:55:23;;;;;;;44.45;19.70;;;;;;;;;;4989962;28;20062;-69
2022/03/20 08:57:48;;;;;;;41.83;19.70;;;;;;;;;;4987111;28;20161;-69
2022/03/20 09:00:16;;;;;;;45.47;19.35;;;;;;;;;;4995705;28;20056;-69
2022/03/20 09:02:43;;;;;;;42.72;21.30;;;;;;;;;;5003381;28;20042;-69
2022/03/20 09:05:11;;;;;;;46.80;21.17;;;;;;;;;;5008347;28;20081;-69
2022/03/20 09:07:40;;;;;;;46.47;19.30;;;;;;;;;;5004430;28;20529;-69
2022/03/20 09:10:06;;;;;;;45.50;20.30;;;;;;;;;;5000963;28;20042;-69
2022/03/20 09:12:32;;;;;;;46.45;19.38;;;;;;;;;;5003312;28;20136;-69
2022/03/20 09:14:58;;;;;;;42.45;18.40;;;;;;;;;;5006048;28;20038;-68
2022/03/20 09:20:08;;;;;;;48.60;24.43;;;;;;;;;;5006186;28;20089;-69
2022/03/20 09:22:34;;;;;;;42.65;19.33;;;;;;;;;;5009947;28;20140;-69
2022/03/20 09:25:00;;;;;;;43.20;19.05;;;;;;;;;;5008561;28;20042;-69
2022/03/20 09:27:25;;;;;;;43.13;19.42;;;;;;;;;;4997716;28;20061;-69
2022/03/20 09:29:50;;;;;;;45.78;19.52;;;;;;;;;;5007560;28;20038;-69
2022/03/20 09:32:17;;;;;;;44.50;18.98;;;;;;;;;;5006482;28;20049;-69
2022/03/20 09:34:42;;;;;;;42.45;18.98;;;;;;;;;;5006831;28;20451;-69
2022/03/20 09:37:07;;;;;;;44.63;20.13;;;;;;;;;;5000919;28;20048;-69
2022/03/20 09:39:33;;;;;;;42.35;18.85;;;;;;;;;;5006825;28;20042;-69
2022/03/20 09:41:59;;;;;;;42.25;19.40;;;;;;;;;;5007501;28;20132;-69
2022/03/20 09:44:25;;;;;;;42.88;19.42;;;;;;;;;;5006633;28;20041;-69
2022/03/20 09:46:51;;;;;;;44.38;20.10;;;;;;;;;;5006809;28;20111;-69
2022/03/20 09:49:20;;;;;;;43.10;19.80;;;;;;;;;;5009825;28;20053;-69
2022/03/20 09:51:45;;;;;;;40.55;19.00;;;;;;;;;;5001350;28;20087;-69
2022/03/20 09:54:13;;;;;;;43.15;19.70;;;;;;;;;;5005141;28;20146;-69
2022/03/20 09:56:41;;;;;;;45.90;19.08;;;;;;;;;;5005101;28;20524;-69
2022/03/20 09:59:07;;;;;;;42.88;19.17;;;;;;;;;;5004977;28;20057;-69
2022/03/20 10:01:34;;;;;;;32.60;15.93;;;;;;;;;;5006166;28;20056;-69
2022/03/20 10:04:07;;;;;;;40.90;18.42;;;;;;;;;;5006142;28;20046;-69
2022/03/20 10:06:36;;;;;;;43.45;19.73;;;;;;;;;;5006802;28;20119;-69
2022/03/20 10:09:04;;;;;;;45.53;19.95;;;;;;;;;;5018887;28;20087;-69
2022/03/20 10:11:32;;;;;;;41.65;19.30;;;;;;;;;;5017276;28;20111;-69
2022/03/20 10:14:20;;;;;;;44.17;19.67;;;;;;;;;;5002611;28;20034;-70
2022/03/20 10:16:50;;;;;;;39.13;19.00;;;;;;;;;;4999495;28;20439;-69
2022/03/20 10:19:21;;;;;;;41.47;18.17;;;;;;;;;;5005302;28;20029;-69
2022/03/20 10:21:48;;;;;;;52.42;21.08;;;;;;;;;;5000594;28;20042;-70
2022/03/20 10:24:18;;;;;;;40.25;19.45;;;;;;;;;;5004953;28;20065;-70
2022/03/20 10:26:44;;;;;;;42.33;17.88;;;;;;;;;;5003348;28;20141;-70
2022/03/20 10:29:16;;;;;;;41.28;18.55;;;;;;;;;;5004978;28;20113;-69
2022/03/20 10:31:50;;;;;;;40.72;19.02;;;;;;;;;;5003705;28;20381;-70
2022/03/20 10:34:17;;;;;;;45.15;17.25;;;;;;;;;;5004889;28;20046;-70
2022/03/20 10:36:43;;;;;;;38.42;17.50;;;;;;;;;;5003317;28;20037;-70
2022/03/20 10:39:15;;;;;;;39.33;18.50;;;;;;;;;;5006962;28;20128;-70
2022/03/20 10:41:41;;;;;;;48.28;21.35;;;;;;;;;;5007096;28;20050;-70
2022/03/20 10:44:18;;;;;;;36.38;17.17;;;;;;;;;;5002728;28;20046;-70
2022/03/20 10:46:56;;;;;;;46.50;19.35;;;;;;;;;;5002702;28;20025;-70
2022/03/20 10:49:21;;;;;;;40.45;18.92;;;;;;;;;;5004059;28;20059;-69
2022/03/20 10:52:01;;;;;;;42.97;19.17;;;;;;;;;;4990755;28;20093;-69
2022/03/20 10:54:38;;;;;;;42.83;19.13;;;;;;;;;;4995689;28;20189;-70
2022/03/20 10:57:05;;;;;;;42.50;19.90;;;;;;;;;;5006190;28;20037;-70
2022/03/20 10:59:30;;;;;;;43.40;20.08;;;;;;;;;;5003264;28;20046;-69
2022/03/20 11:01:57;;;;;;;37.90;19.38;;;;;;;;;;5005503;28;20053;-70
2022/03/20 11:04:23;;;;;;;39.45;18.67;;;;;;;;;;5005321;28;20032;-70
2022/03/20 11:06:50;;;;;;;41.75;19.25;;;;;;;;;;5006072;28;20037;-69
2022/03/20 11:09:16;;;;;;;43.78;20.20;;;;;;;;;;4999165;28;20128;-69
2022/03/20 11:11:50;;;;;;;39.35;17.95;;;;;;;;;;4985670;28;20035;-70
2022/03/20 11:14:24;;;;;;;39.40;19.42;;;;;;;;;;4996075;28;20041;-70
2022/03/20 11:17:06;;;;;;;42.70;18.88;;;;;;;;;;5006989;28;20081;-70
2022/03/20 11:19:34;;;;;;;45.83;20.95;;;;;;;;;;4996814;28;20073;-69
2022/03/20 11:22:05;;;;;;;29.27;13.15;;;;;;;;;;5004567;28;20107;-69
2022/03/20 11:24:31;;;;;;;49.47;21.58;;;;;;;;;;5003914;28;20189;-70
2022/03/20 11:27:00;;;;;;;41.97;19.35;;;;;;;;;;5010590;28;20042;-69
2022/03/20 11:29:28;;;;;;;42.55;20.02;;;;;;;;;;5009669;28;20049;-70
2022/03/20 11:31:54;;;;;;;46.15;21.67;;;;;;;;;;5004894;28;20026;-70
2022/03/20 11:34:22;;;;;;;56.13;23.58;;;;;;;;;;5009621;28;20075;-72
2022/03/20 11:37:06;;;;;;;52.38;21.95;;;;;;;;;;4993275;28;20042;-73
2022/03/20 11:39:32;;;;;;;49.72;21.10;;;;;;;;;;4999397;28;20038;-69
2022/03/20 11:42:19;;;;;;;45.63;21.92;;;;;;;;;;5004764;28;20448;-73
2022/03/20 11:45:09;;;;;;;41.92;19.90;;;;;;;;;;5006233;28;20579;-73
2022/03/20 11:47:37;;;;;;;39.72;16.52;;;;;;;;;;4998646;28;20050;-71
2022/03/20 11:50:22;;;;;;;46.75;20.58;;;;;;;;;;5005608;28;20030;-71
2022/03/20 11:53:00;;;;;;;38.88;17.75;;;;;;;;;;5007680;28;20100;-71
2022/03/20 11:55:36;;;;;;;40.38;19.10;;;;;;;;;;5008436;28;20041;-71
2022/03/20 11:58:31;;;;;;;40.67;17.92;;;;;;;;;;5002109;28;20073;-71
2022/03/20 12:01:02;;;;;;;37.67;16.10;;;;;;;;;;4978132;28;20149;-71
2022/03/20 12:04:04;;;;;;;40.65;19.30;;;;;;;;;;4996078;28;20111;-71
2022/03/20 12:06:36;;;;;;;40.47;20.02;;;;;;;;;;5003847;28;20038;-71
2022/03/20 12:09:07;;;;;;;34.30;17.52;;;;;;;;;;5005452;28;20041;-71
2022/03/20 12:12:09;;;;;;;31.92;15.93;;;;;;;;;;5005859;28;20069;-71
2022/03/20 12:14:42;;;;;;;39.50;18.95;;;;;;;;;;5007403;28;20061;-70
2022/03/20 12:17:08;;;;;;;39.80;18.50;;;;;;;;;;5004902;28;20129;-70
2022/03/20 12:19:41;;;;;;;42.45;20.40;;;;;;;;;;5007158;28;20093;-71
2022/03/20 12:22:16;;;;;;;41.25;19.02;;;;;;;;;;5005241;28;20034;-71
2022/03/20 12:24:47;;;;;;;45.00;18.85;;;;;;;;;;5006562;28;20041;-71
2022/03/20 12:27:24;;;;;;;38.88;19.65;;;;;;;;;;5000785;28;20552;-70
2022/03/20 12:30:04;;;;;;;41.08;19.40;;;;;;;;;;4994441;28;20064;-71
2022/03/20 12:32:48;;;;;;;40.03;20.25;;;;;;;;;;5003010;28;20068;-71
2022/03/20 12:35:13;;;;;;;43.40;19.27;;;;;;;;;;5014953;28;20669;-71
2022/03/20 12:37:40;;;;;;;43.42;22.00;;;;;;;;;;5006836;28;20037;-71
2022/03/20 12:40:19;;;;;;;36.20;18.05;;;;;;;;;;5006528;28;20045;-71
2022/03/20 12:42:56;;;;;;;42.55;20.77;;;;;;;;;;5006861;28;20042;-71
2022/03/20 12:45:22;;;;;;;43.55;22.23;;;;;;;;;;4987572;28;20136;-71
2022/03/20 12:48:00;;;;;;;49.25;23.67;;;;;;;;;;4997708;28;20133;-72
2022/03/20 12:50:30;;;;;;;40.08;19.38;;;;;;;;;;4995326;28;20068;-70
2022/03/20 12:53:15;;;;;;;46.85;22.27;;;;;;;;;;4996067;28;20026;-71
2022/03/20 12:55:43;;;;;;;49.58;24.17;;;;;;;;;;5000770;28;20034;-71
2022/03/20 12:58:14;;;;;;;38.03;16.35;;;;;;;;;;5006165;28;20161;-71
2022/03/20 13:00:39;;;;;;;46.17;22.38;;;;;;;;;;5003041;28;20530;-71
2022/03/20 13:03:07;;;;;;;49.85;23.23;;;;;;;;;;4999067;28;20527;-70
2022/03/20 13:05:45;;;;;;;46.13;22.13;;;;;;;;;;4994931;28;20045;-71
2022/03/20 13:08:17;;;;;;;53.95;24.65;;;;;;;;;;4998234;28;20076;-74
2022/03/20 13:10:43;;;;;;;42.55;19.63;;;;;;;;;;4990964;28;20518;-73
2022/03/20 13:13:08;;;;;;;51.40;21.75;;;;;;;;;;4999813;28;20034;-72
2022/03/20 13:15:38;;;;;;;47.03;20.55;;;;;;;;;;5000607;28;20052;-75
2022/03/20 13:18:06;;;;;;;48.65;23.00;;;;;;;;;;5000921;28;20130;-73
2022/03/20 13:20:36;;;;;;;45.15;23.27;;;;;;;;;;5003395;28;20553;-72
2022/03/20 13:23:10;;;;;;;41.95;20.65;;;;;;;;;;5004874;28;20033;-71
2022/03/20 13:25:44;;;;;;;40.70;18.52;;;;;;;;;;5003816;28;20033;-72
2022/03/20 13:28:26;;;;;;;;;;;;;;;;;;4979089;28;20050;-73
2022/03/20 13:30:52;;;;;;;45.90;19.40;;;;;;;;;;4998438;28;19976;-71
2022/03/20 13:33:27;;;;;;;40.67;18.90;;;;;;;;;;4999595;28;20038;-71
2022/03/20 13:35:54;;;;;;;39.50;17.25;;;;;;;;;;4995236;28;21035;-72
2022/03/20 13:38:19;;;;;;;36.70;17.42;;;;;;;;;;4985034;28;20038;-72
2022/03/20 13:40:45;;;;;;;39.00;18.73;;;;;;;;;;4984607;28;20403;-72
2022/03/20 13:43:19;;;;;;;44.25;20.25;;;;;;;;;;4993527;28;20133;-71
2022/03/20 13:45:44;;;;;;;39.47;19.38;;;;;;;;;;4982404;28;20097;-72
2022/03/20 13:48:11;;;;;;;39.67;19.50;;;;;;;;;;4988884;28;20147;-72
2022/03/20 13:50:37;;;;;;;35.70;17.73;;;;;;;;;;4997842;28;20076;-72
2022/03/20 13:53:02;;;;;;;35.85;17.75;;;;;;;;;;5006045;28;20415;-72
2022/03/20 13:55:34;;;;;;;34.88;16.95;;;;;;;;;;5006794;28;20556;-72
2022/03/20 13:58:01;;;;;;;34.08;15.40;;;;;;;;;;5006437;28;20061;-72
2022/03/20 14:00:37;;;;;;;38.45;18.80;;;;;;;;;;5000269;28;20060;-72
2022/03/20 14:03:03;;;;;;;42.08;19.98;;;;;;;;;;5001203;28;20084;-72
2022/03/20 14:05:29;;;;;;;37.60;18.60;;;;;;;;;;5004303;28;20538;-72
2022/03/20 14:08:15;;;;;;;38.45;19.13;;;;;;;;;;4992761;28;20026;-72
2022/03/20 14:10:43;;;;;;;37.97;19.60;;;;;;;;;;5009610;28;20120;-72
2022/03/20 14:13:30;;;;;;;39.42;17.33;;;;;;;;;;4987381;28;20117;-72
2022/03/20 14:16:08;;;;;;;38.30;18.52;;;;;;;;;;5004220;28;20050;-72
2022/03/20 14:18:53;;;;;;;38.70;17.50;;;;;;;;;;5003522;28;20598;-72
2022/03/20 14:21:21;;;;;;;38.00;19.33;;;;;;;;;;5003741;28;20033;-72
2022/03/20 14:24:08;;;;;;;39.10;17.92;;;;;;;;;;5004321;28;20712;-72
2022/03/20 14:26:37;;;;;;;38.20;18.58;;;;;;;;;;5001596;28;20092;-72
2022/03/20 14:29:10;;;;;;;33.15;17.58;;;;;;;;;;5000223;28;20076;-71
2022/03/20 14:40:14;;;;;;;36.65;18.92;;;;;;;;;;4985860;28;20138;-71
2022/03/20 14:42:41;;;;;;;36.97;18.92;;;;;;;;;;4976947;28;20031;-72
2022/03/20 14:45:08;;;;;;;36.50;18.77;;;;;;;;;;4988645;28;20193;-71
2022/03/20 14:47:34;;;;;;;37.22;18.58;;;;;;;;;;4981738;28;20053;-72
2022/03/20 14:50:03;;;;;;;33.88;17.70;;;;;;;;;;5013047;28;20030;-71
2022/03/20 14:52:29;;;;;;;36.72;18.65;;;;;;;;;;4984301;28;20041;-72
2022/03/20 14:54:54;;;;;;;36.50;18.33;;;;;;;;;;4987917;28;20042;-72
2022/03/20 14:57:20;;;;;;;38.60;19.20;;;;;;;;;;4995929;28;20049;-72
2022/03/20 14:59:46;;;;;;;37.88;18.98;;;;;;;;;;4981766;28;20041;-72
2022/03/20 15:02:13;;;;;;;33.55;19.33;;;;;;;;;;5001812;28;20186;-72
2022/03/20 15:04:41;;;;;;;36.83;18.90;;;;;;;;;;5003949;28;20085;-71
2022/03/20 15:07:07;;;;;;;41.28;20.63;;;;;;;;;;4981327;28;20062;-69
2022/03/20 15:12:18;;;;;;;40.13;20.77;;;;;;;;;;4984300;28;20046;-72
2022/03/20 15:14:45;;;;;;;36.50;18.13;;;;;;;;;;4983966;28;20031;-68